Nearby METAR Reports

 

KDEN - Denver, Colorado, USA
Distance from station: NE 9mi, 14km
Updated: Wed, 16-Jan-2019 4:53am MST
Overcast
Overcast
 Wind from WNW
Wind: WNW 7 mph , 11 km/h
Temperature: 34°F , 1°C
Wind Chill: 28°F , -2°C
Dew Point: 21°F , -6°C
Humidity: 60%
Barometer: 29.92 inHg , 1013.2 hPa
Clouds: Overcast
Visibility: 10 miles , 16 km
Cloud details: Overcast 10000 ft
2019/01/16 11:53 KDEN 161153Z 29006KT 10SM OVC100 01/M06 A2992 RMK AO2 SLP133 T00061061 10022 21017 58013
KAPA - Centennial Airport, Colorado, USA
Distance from station: N 9mi, 14km
Updated: Wed, 16-Jan-2019 4:53am MST
Mostly cloudy
Mostly cloudy
 Wind from SSW
Wind: SSW 9 mph , 15 km/h
Temperature: 34°F , 1°C
Wind Chill: 27°F , -3°C
Dew Point: 23°F , -5°C
Humidity: 65%
Barometer: 29.91 inHg , 1012.9 hPa
Clouds: Mostly cloudy
Visibility: 10 miles , 16 km
Cloud details: Few Clouds 6000 ft
Mostly cloudy 10000 ft
2019/01/16 11:53 KAPA 161153Z 20008KT 10SM FEW060 BKN100 01/M05 A2991 RMK AO2 SLP138 T00111050 10028 21006 56017
 
KBJC - Broomfield Airport, Colorado, USA
Distance from station: NNW 14mi, 23km
Updated: Wed, 16-Jan-2019 4:57am MST
Clear
Clear
 Wind from N
Wind: N 9 mph , 15 km/h
Temperature: 32°F , 0°C
Wind Chill: 24°F , -4°C
Dew Point: 18°F , -8°C
Humidity: 55%
Barometer: 29.92 inHg , 1013.2 hPa
Clouds: Clear
Visibility: 10 miles , 16 km
2019/01/16 11:57 KBJC 161157Z AUTO 35008KT 10SM CLR 00/M08 A2992 RMK AO2 PWINO